sensor_id;sensor_type;location;lat;lon;timestamp;P1;durP1;ratioP1;P2;durP2;ratioP2
4023;SDS011;2026;51.002;13.668;2023-08-06T00:01:52;6.03;;;5.43;;
4023;SDS011;2026;51.002;13.668;2023-08-06T00:06:55;6.40;;;5.80;;
4023;SDS011;2026;51.002;13.668;2023-08-06T00:11:58;6.63;;;6.00;;
4023;SDS011;2026;51.002;13.668;2023-08-06T00:17:02;8.90;;;6.43;;
4023;SDS011;2026;51.002;13.668;2023-08-06T00:22:06;6.87;;;6.17;;
4023;SDS011;2026;51.002;13.668;2023-08-06T00:27:09;8.93;;;6.60;;
4023;SDS011;2026;51.002;13.668;2023-08-06T00:32:13;6.50;;;5.63;;
4023;SDS011;2026;51.002;13.668;2023-08-06T00:37:16;7.10;;;6.40;;
4023;SDS011;2026;51.002;13.668;2023-08-06T00:42:19;9.13;;;5.97;;
4023;SDS011;2026;51.002;13.668;2023-08-06T00:47:24;8.10;;;5.80;;
4023;SDS011;2026;51.002;13.668;2023-08-06T00:52:27;6.73;;;6.03;;
4023;SDS011;2026;51.002;13.668;2023-08-06T00:57:30;6.37;;;5.00;;
4023;SDS011;2026;51.002;13.668;2023-08-06T01:02:34;7.87;;;5.23;;
4023;SDS011;2026;51.002;13.668;2023-08-06T01:07:47;7.73;;;6.10;;
4023;SDS011;2026;51.002;13.668;2023-08-06T01:12:55;8.90;;;5.37;;
4023;SDS011;2026;51.002;13.668;2023-08-06T01:18:01;6.83;;;6.13;;
4023;SDS011;2026;51.002;13.668;2023-08-06T01:23:05;6.87;;;5.43;;
4023;SDS011;2026;51.002;13.668;2023-08-06T01:28:09;7.40;;;5.63;;
4023;SDS011;2026;51.002;13.668;2023-08-06T01:33:14;6.10;;;5.60;;
4023;SDS011;2026;51.002;13.668;2023-08-06T01:38:20;6.83;;;4.97;;
4023;SDS011;2026;51.002;13.668;2023-08-06T01:43:23;6.80;;;4.93;;
4023;SDS011;2026;51.002;13.668;2023-08-06T01:48:26;6.47;;;4.67;;
4023;SDS011;2026;51.002;13.668;2023-08-06T01:53:30;5.23;;;4.73;;
4023;SDS011;2026;51.002;13.668;2023-08-06T01:58:33;5.03;;;4.63;;
4023;SDS011;2026;51.002;13.668;2023-08-06T02:03:35;5.50;;;5.00;;
4023;SDS011;2026;51.002;13.668;2023-08-06T02:08:39;6.83;;;5.33;;
4023;SDS011;2026;51.002;13.668;2023-08-06T02:13:42;8.00;;;6.17;;
4023;SDS011;2026;51.002;13.668;2023-08-06T02:18:51;8.77;;;6.00;;
4023;SDS011;2026;51.002;13.668;2023-08-06T02:23:55;8.10;;;6.07;;
4023;SDS011;2026;51.002;13.668;2023-08-06T02:28:57;11.43;;;6.30;;
4023;SDS011;2026;51.002;13.668;2023-08-06T02:34:00;6.90;;;6.20;;
4023;SDS011;2026;51.002;13.668;2023-08-06T02:39:04;9.53;;;6.00;;
4023;SDS011;2026;51.002;13.668;2023-08-06T02:44:07;6.70;;;6.00;;
4023;SDS011;2026;51.002;13.668;2023-08-06T02:49:10;8.00;;;7.20;;
4023;SDS011;2026;51.002;13.668;2023-08-06T02:54:14;9.50;;;7.00;;
4023;SDS011;2026;51.002;13.668;2023-08-06T02:59:17;7.00;;;6.37;;
4023;SDS011;2026;51.002;13.668;2023-08-06T03:04:27;9.67;;;6.63;;
4023;SDS011;2026;51.002;13.668;2023-08-06T03:09:31;7.60;;;6.57;;
4023;SDS011;2026;51.002;13.668;2023-08-06T03:14:34;7.43;;;6.63;;
4023;SDS011;2026;51.002;13.668;2023-08-06T03:19:40;8.77;;;6.80;;
4023;SDS011;2026;51.002;13.668;2023-08-06T03:24:45;8.13;;;6.33;;
4023;SDS011;2026;51.002;13.668;2023-08-06T03:29:48;7.90;;;6.50;;
4023;SDS011;2026;51.002;13.668;2023-08-06T03:34:54;7.60;;;6.63;;
4023;SDS011;2026;51.002;13.668;2023-08-06T03:40:02;7.00;;;6.30;;
4023;SDS011;2026;51.002;13.668;2023-08-06T03:45:07;6.80;;;6.20;;
4023;SDS011;2026;51.002;13.668;2023-08-06T03:50:12;6.80;;;6.10;;
4023;SDS011;2026;51.002;13.668;2023-08-06T03:55:16;5.87;;;4.97;;
4023;SDS011;2026;51.002;13.668;2023-08-06T04:00:19;5.90;;;5.40;;
4023;SDS011;2026;51.002;13.668;2023-08-06T04:05:26;5.83;;;5.27;;
4023;SDS011;2026;51.002;13.668;2023-08-06T04:10:30;6.03;;;5.30;;
4023;SDS011;2026;51.002;13.668;2023-08-06T04:15:35;5.50;;;5.00;;
4023;SDS011;2026;51.002;13.668;2023-08-06T04:20:42;4.70;;;4.10;;
4023;SDS011;2026;51.002;13.668;2023-08-06T04:25:46;5.03;;;3.93;;
4023;SDS011;2026;51.002;13.668;2023-08-06T04:30:49;4.17;;;3.10;;
4023;SDS011;2026;51.002;13.668;2023-08-06T04:35:55;3.87;;;3.47;;
4023;SDS011;2026;51.002;13.668;2023-08-06T04:41:01;5.20;;;4.67;;
4023;SDS011;2026;51.002;13.668;2023-08-06T04:46:05;5.33;;;4.93;;
4023;SDS011;2026;51.002;13.668;2023-08-06T04:51:07;4.80;;;4.33;;
4023;SDS011;2026;51.002;13.668;2023-08-06T04:56:12;5.60;;;5.10;;
4023;SDS011;2026;51.002;13.668;2023-08-06T05:01:14;4.07;;;3.77;;
4023;SDS011;2026;51.002;13.668;2023-08-06T05:06:17;4.30;;;3.90;;
4023;SDS011;2026;51.002;13.668;2023-08-06T05:11:21;4.60;;;4.20;;
4023;SDS011;2026;51.002;13.668;2023-08-06T05:16:25;4.23;;;3.83;;
4023;SDS011;2026;51.002;13.668;2023-08-06T05:21:28;4.27;;;3.47;;
4023;SDS011;2026;51.002;13.668;2023-08-06T05:26:32;4.30;;;3.90;;
4023;SDS011;2026;51.002;13.668;2023-08-06T05:31:35;4.67;;;3.80;;
4023;SDS011;2026;51.002;13.668;2023-08-06T05:36:38;4.40;;;3.80;;
4023;SDS011;2026;51.002;13.668;2023-08-06T05:41:42;3.80;;;3.40;;
4023;SDS011;2026;51.002;13.668;2023-08-06T05:46:44;3.80;;;3.40;;
4023;SDS011;2026;51.002;13.668;2023-08-06T05:51:47;3.97;;;3.57;;
4023;SDS011;2026;51.002;13.668;2023-08-06T05:56:51;5.43;;;4.93;;
4023;SDS011;2026;51.002;13.668;2023-08-06T06:01:54;7.90;;;6.20;;
4023;SDS011;2026;51.002;13.668;2023-08-06T06:06:57;5.13;;;4.50;;
4023;SDS011;2026;51.002;13.668;2023-08-06T06:12:01;6.73;;;4.77;;
4023;SDS011;2026;51.002;13.668;2023-08-06T06:17:03;5.47;;;4.97;;
4023;SDS011;2026;51.002;13.668;2023-08-06T06:22:06;7.03;;;4.70;;
4023;SDS011;2026;51.002;13.668;2023-08-06T06:27:10;5.70;;;5.10;;
4023;SDS011;2026;51.002;13.668;2023-08-06T06:32:13;7.03;;;5.90;;
4023;SDS011;2026;51.002;13.668;2023-08-06T06:37:16;6.83;;;4.87;;
4023;SDS011;2026;51.002;13.668;2023-08-06T06:42:20;5.80;;;5.17;;
4023;SDS011;2026;51.002;13.668;2023-08-06T06:47:26;7.40;;;6.60;;
4023;SDS011;2026;51.002;13.668;2023-08-06T06:52:29;6.30;;;5.70;;
4023;SDS011;2026;51.002;13.668;2023-08-06T06:57:33;6.27;;;5.67;;
4023;SDS011;2026;51.002;13.668;2023-08-06T07:02:36;6.50;;;5.90;;
4023;SDS011;2026;51.002;13.668;2023-08-06T07:07:38;5.40;;;4.90;;
4023;SDS011;2026;51.002;13.668;2023-08-06T07:12:43;6.27;;;5.67;;
4023;SDS011;2026;51.002;13.668;2023-08-06T07:17:45;6.70;;;4.93;;
4023;SDS011;2026;51.002;13.668;2023-08-06T07:22:48;6.97;;;5.50;;
4023;SDS011;2026;51.002;13.668;2023-08-06T07:27:52;6.97;;;5.23;;
4023;SDS011;2026;51.002;13.668;2023-08-06T07:32:55;5.40;;;4.07;;
4023;SDS011;2026;51.002;13.668;2023-08-06T07:37:58;4.37;;;3.67;;
4023;SDS011;2026;51.002;13.668;2023-08-06T07:43:02;3.90;;;3.60;;
4023;SDS011;2026;51.002;13.668;2023-08-06T07:48:05;4.10;;;3.53;;
4023;SDS011;2026;51.002;13.668;2023-08-06T07:54:56;4.13;;;3.73;;
4023;SDS011;2026;51.002;13.668;2023-08-06T07:59:59;3.17;;;2.87;;
4023;SDS011;2026;51.002;13.668;2023-08-06T08:05:01;3.27;;;2.50;;
4023;SDS011;2026;51.002;13.668;2023-08-06T08:10:07;3.33;;;2.60;;
4023;SDS011;2026;51.002;13.668;2023-08-06T08:15:10;4.63;;;2.83;;
4023;SDS011;2026;51.002;13.668;2023-08-06T08:20:12;2.63;;;2.43;;
4023;SDS011;2026;51.002;13.668;2023-08-06T08:25:16;2.90;;;2.60;;
4023;SDS011;2026;51.002;13.668;2023-08-06T08:30:19;2.60;;;2.40;;
4023;SDS011;2026;51.002;13.668;2023-08-06T08:35:22;3.83;;;2.50;;
4023;SDS011;2026;51.002;13.668;2023-08-06T08:40:26;2.70;;;2.50;;
4023;SDS011;2026;51.002;13.668;2023-08-06T08:45:33;2.70;;;2.50;;
4023;SDS011;2026;51.002;13.668;2023-08-06T08:50:37;4.17;;;3.20;;
4023;SDS011;2026;51.002;13.668;2023-08-06T08:55:41;3.37;;;3.00;;
4023;SDS011;2026;51.002;13.668;2023-08-06T09:00:45;4.00;;;2.97;;
4023;SDS011;2026;51.002;13.668;2023-08-06T09:05:49;3.13;;;2.83;;
4023;SDS011;2026;51.002;13.668;2023-08-06T09:10:53;3.43;;;2.97;;
4023;SDS011;2026;51.002;13.668;2023-08-06T09:15:56;3.40;;;2.80;;
4023;SDS011;2026;51.002;13.668;2023-08-06T09:20:59;6.93;;;3.60;;
4023;SDS011;2026;51.002;13.668;2023-08-06T09:26:03;3.60;;;3.30;;
4023;SDS011;2026;51.002;13.668;2023-08-06T09:31:06;3.50;;;3.20;;
4023;SDS011;2026;51.002;13.668;2023-08-06T09:36:09;4.30;;;3.90;;
4023;SDS011;2026;51.002;13.668;2023-08-06T09:41:13;3.73;;;3.40;;
4023;SDS011;2026;51.002;13.668;2023-08-06T09:46:28;3.40;;;3.10;;
4023;SDS011;2026;51.002;13.668;2023-08-06T09:51:31;4.27;;;3.60;;
4023;SDS011;2026;51.002;13.668;2023-08-06T09:56:35;4.03;;;3.17;;
4023;SDS011;2026;51.002;13.668;2023-08-06T10:01:39;3.80;;;3.40;;
4023;SDS011;2026;51.002;13.668;2023-08-06T10:06:42;4.33;;;3.97;;
4023;SDS011;2026;51.002;13.668;2023-08-06T10:11:48;3.60;;;2.97;;
4023;SDS011;2026;51.002;13.668;2023-08-06T10:16:53;3.30;;;3.00;;
4023;SDS011;2026;51.002;13.668;2023-08-06T10:22:09;3.60;;;3.30;;
4023;SDS011;2026;51.002;13.668;2023-08-06T10:27:14;4.53;;;3.70;;
4023;SDS011;2026;51.002;13.668;2023-08-06T10:32:21;3.87;;;3.57;;
4023;SDS011;2026;51.002;13.668;2023-08-06T10:37:25;3.67;;;2.90;;
4023;SDS011;2026;51.002;13.668;2023-08-06T10:42:38;3.70;;;3.40;;
4023;SDS011;2026;51.002;13.668;2023-08-06T10:47:43;3.90;;;3.57;;
4023;SDS011;2026;51.002;13.668;2023-08-06T10:52:46;3.20;;;3.00;;
4023;SDS011;2026;51.002;13.668;2023-08-06T10:57:50;4.00;;;3.30;;
4023;SDS011;2026;51.002;13.668;2023-08-06T11:02:53;3.30;;;3.00;;
4023;SDS011;2026;51.002;13.668;2023-08-06T11:07:56;5.30;;;3.80;;
4023;SDS011;2026;51.002;13.668;2023-08-06T11:13:01;3.50;;;3.20;;
4023;SDS011;2026;51.002;13.668;2023-08-06T11:18:04;3.53;;;3.00;;
4023;SDS011;2026;51.002;13.668;2023-08-06T11:23:09;5.37;;;3.10;;
4023;SDS011;2026;51.002;13.668;2023-08-06T11:28:13;3.17;;;2.87;;
4023;SDS011;2026;51.002;13.668;2023-08-06T11:33:19;2.83;;;2.63;;
4023;SDS011;2026;51.002;13.668;2023-08-06T11:38:24;3.23;;;2.70;;
4023;SDS011;2026;51.002;13.668;2023-08-06T11:43:29;3.90;;;3.50;;
4023;SDS011;2026;51.002;13.668;2023-08-06T11:48:33;3.77;;;3.17;;
4023;SDS011;2026;51.002;13.668;2023-08-06T11:53:54;3.20;;;2.90;;
4023;SDS011;2026;51.002;13.668;2023-08-06T11:58:58;4.20;;;3.43;;
4023;SDS011;2026;51.002;13.668;2023-08-06T12:04:01;3.73;;;3.43;;
4023;SDS011;2026;51.002;13.668;2023-08-06T12:09:06;5.53;;;3.03;;
4023;SDS011;2026;51.002;13.668;2023-08-06T12:14:11;3.87;;;3.20;;
4023;SDS011;2026;51.002;13.668;2023-08-06T12:19:13;4.83;;;3.97;;
4023;SDS011;2026;51.002;13.668;2023-08-06T12:24:16;3.30;;;3.00;;
4023;SDS011;2026;51.002;13.668;2023-08-06T12:29:20;3.20;;;2.90;;
4023;SDS011;2026;51.002;13.668;2023-08-06T12:34:23;3.57;;;3.27;;
4023;SDS011;2026;51.002;13.668;2023-08-06T12:39:29;4.17;;;3.20;;
4023;SDS011;2026;51.002;13.668;2023-08-06T12:44:34;4.73;;;3.43;;
4023;SDS011;2026;51.002;13.668;2023-08-06T12:49:36;3.70;;;3.27;;
4023;SDS011;2026;51.002;13.668;2023-08-06T12:54:39;2.87;;;2.50;;
4023;SDS011;2026;51.002;13.668;2023-08-06T12:59:43;3.33;;;3.03;;
4023;SDS011;2026;51.002;13.668;2023-08-06T13:04:46;2.70;;;2.50;;
4023;SDS011;2026;51.002;13.668;2023-08-06T13:09:49;3.13;;;2.83;;
4023;SDS011;2026;51.002;13.668;2023-08-06T13:14:53;3.47;;;2.63;;
4023;SDS011;2026;51.002;13.668;2023-08-06T13:19:58;2.90;;;2.70;;
4023;SDS011;2026;51.002;13.668;2023-08-06T13:25:01;3.37;;;3.10;;
4023;SDS011;2026;51.002;13.668;2023-08-06T13:30:06;2.93;;;2.70;;
4023;SDS011;2026;51.002;13.668;2023-08-06T13:35:09;3.47;;;3.17;;
4023;SDS011;2026;51.002;13.668;2023-08-06T13:40:12;3.30;;;3.00;;
4023;SDS011;2026;51.002;13.668;2023-08-06T13:45:16;3.87;;;2.90;;
4023;SDS011;2026;51.002;13.668;2023-08-06T13:50:19;3.20;;;2.90;;
4023;SDS011;2026;51.002;13.668;2023-08-06T13:55:23;3.30;;;2.80;;
4023;SDS011;2026;51.002;13.668;2023-08-06T14:00:27;2.70;;;2.50;;
4023;SDS011;2026;51.002;13.668;2023-08-06T14:05:30;3.30;;;3.00;;
4023;SDS011;2026;51.002;13.668;2023-08-06T14:10:33;3.27;;;2.97;;
4023;SDS011;2026;51.002;13.668;2023-08-06T14:15:37;3.30;;;3.00;;
4023;SDS011;2026;51.002;13.668;2023-08-06T14:20:41;2.93;;;2.73;;
4023;SDS011;2026;51.002;13.668;2023-08-06T14:25:44;3.07;;;2.80;;
4023;SDS011;2026;51.002;13.668;2023-08-06T14:30:48;2.70;;;2.50;;
4023;SDS011;2026;51.002;13.668;2023-08-06T14:35:51;3.30;;;2.70;;
4023;SDS011;2026;51.002;13.668;2023-08-06T14:40:53;2.43;;;2.23;;
4023;SDS011;2026;51.002;13.668;2023-08-06T14:45:58;2.10;;;2.00;;
4023;SDS011;2026;51.002;13.668;2023-08-06T14:51:00;2.70;;;2.30;;
4023;SDS011;2026;51.002;13.668;2023-08-06T14:56:03;2.50;;;2.30;;
4023;SDS011;2026;51.002;13.668;2023-08-06T15:01:07;3.20;;;2.90;;
4023;SDS011;2026;51.002;13.668;2023-08-06T15:06:10;4.83;;;3.10;;
4023;SDS011;2026;51.002;13.668;2023-08-06T15:11:13;3.20;;;2.90;;
4023;SDS011;2026;51.002;13.668;2023-08-06T15:16:17;3.00;;;2.80;;
4023;SDS011;2026;51.002;13.668;2023-08-06T15:21:20;3.40;;;3.10;;
4023;SDS011;2026;51.002;13.668;2023-08-06T15:26:23;3.67;;;3.20;;
4023;SDS011;2026;51.002;13.668;2023-08-06T15:31:32;3.27;;;2.93;;
4023;SDS011;2026;51.002;13.668;2023-08-06T15:36:37;4.20;;;3.20;;
4023;SDS011;2026;51.002;13.668;2023-08-06T15:41:40;6.60;;;3.90;;
4023;SDS011;2026;51.002;13.668;2023-08-06T15:46:44;3.80;;;3.40;;
4023;SDS011;2026;51.002;13.668;2023-08-06T15:51:47;3.70;;;3.40;;
4023;SDS011;2026;51.002;13.668;2023-08-06T15:56:49;4.30;;;3.70;;
4023;SDS011;2026;51.002;13.668;2023-08-06T16:01:54;4.70;;;3.67;;
4023;SDS011;2026;51.002;13.668;2023-08-06T16:06:59;3.97;;;3.63;;
4023;SDS011;2026;51.002;13.668;2023-08-06T16:12:02;5.10;;;4.63;;
4023;SDS011;2026;51.002;13.668;2023-08-06T16:17:06;4.90;;;4.30;;
4023;SDS011;2026;51.002;13.668;2023-08-06T16:22:09;5.43;;;4.93;;
4023;SDS011;2026;51.002;13.668;2023-08-06T16:27:12;6.10;;;5.57;;
4023;SDS011;2026;51.002;13.668;2023-08-06T16:32:16;6.93;;;6.20;;
4023;SDS011;2026;51.002;13.668;2023-08-06T16:37:18;8.30;;;7.50;;
4023;SDS011;2026;51.002;13.668;2023-08-06T16:42:21;7.70;;;7.10;;
4023;SDS011;2026;51.002;13.668;2023-08-06T16:47:25;7.57;;;6.87;;
4023;SDS011;2026;51.002;13.668;2023-08-06T16:52:28;8.77;;;7.57;;
4023;SDS011;2026;51.002;13.668;2023-08-06T16:57:31;7.77;;;6.87;;
4023;SDS011;2026;51.002;13.668;2023-08-06T17:02:35;7.20;;;6.50;;
4023;SDS011;2026;51.002;13.668;2023-08-06T17:07:38;7.30;;;6.60;;
4023;SDS011;2026;51.002;13.668;2023-08-06T17:12:40;7.47;;;6.77;;
4023;SDS011;2026;51.002;13.668;2023-08-06T17:17:44;6.63;;;6.13;;
4023;SDS011;2026;51.002;13.668;2023-08-06T17:22:47;7.13;;;6.53;;
4023;SDS011;2026;51.002;13.668;2023-08-06T17:27:50;8.23;;;7.47;;
4023;SDS011;2026;51.002;13.668;2023-08-06T17:32:54;9.87;;;8.77;;
4023;SDS011;2026;51.002;13.668;2023-08-06T17:37:57;9.90;;;8.90;;
4023;SDS011;2026;51.002;13.668;2023-08-06T17:43:01;13.07;;;10.13;;
4023;SDS011;2026;51.002;13.668;2023-08-06T17:48:05;11.30;;;10.00;;
4023;SDS011;2026;51.002;13.668;2023-08-06T17:53:08;11.10;;;9.80;;
4023;SDS011;2026;51.002;13.668;2023-08-06T17:58:11;10.50;;;8.30;;
4023;SDS011;2026;51.002;13.668;2023-08-06T18:03:15;7.90;;;6.70;;
4023;SDS011;2026;51.002;13.668;2023-08-06T18:08:19;11.00;;;9.90;;
4023;SDS011;2026;51.002;13.668;2023-08-06T18:13:22;10.50;;;9.40;;
4023;SDS011;2026;51.002;13.668;2023-08-06T18:18:26;11.50;;;10.30;;
4023;SDS011;2026;51.002;13.668;2023-08-06T18:23:28;10.73;;;9.63;;
4023;SDS011;2026;51.002;13.668;2023-08-06T18:28:31;11.53;;;10.23;;
4023;SDS011;2026;51.002;13.668;2023-08-06T18:33:36;11.07;;;9.83;;
4023;SDS011;2026;51.002;13.668;2023-08-06T18:38:39;11.60;;;10.17;;
4023;SDS011;2026;51.002;13.668;2023-08-06T18:43:43;12.00;;;10.60;;
4023;SDS011;2026;51.002;13.668;2023-08-06T18:48:47;7.90;;;7.10;;
4023;SDS011;2026;51.002;13.668;2023-08-06T18:53:50;7.50;;;5.93;;
4023;SDS011;2026;51.002;13.668;2023-08-06T18:58:53;7.10;;;6.30;;
4023;SDS011;2026;51.002;13.668;2023-08-06T19:03:57;7.00;;;5.53;;
4023;SDS011;2026;51.002;13.668;2023-08-06T19:09:00;3.87;;;3.50;;
4023;SDS011;2026;51.002;13.668;2023-08-06T19:14:02;3.83;;;3.50;;
4023;SDS011;2026;51.002;13.668;2023-08-06T19:19:06;3.10;;;2.80;;
4023;SDS011;2026;51.002;13.668;2023-08-06T19:24:09;3.03;;;2.73;;
4023;SDS011;2026;51.002;13.668;2023-08-06T19:29:12;3.07;;;2.70;;
4023;SDS011;2026;51.002;13.668;2023-08-06T19:34:16;2.60;;;2.40;;
4023;SDS011;2026;51.002;13.668;2023-08-06T19:39:19;1.93;;;1.80;;
4023;SDS011;2026;51.002;13.668;2023-08-06T19:44:22;1.93;;;1.83;;
4023;SDS011;2026;51.002;13.668;2023-08-06T19:49:26;2.43;;;2.23;;
4023;SDS011;2026;51.002;13.668;2023-08-06T19:54:28;2.57;;;2.20;;
4023;SDS011;2026;51.002;13.668;2023-08-06T19:59:31;2.43;;;1.90;;
4023;SDS011;2026;51.002;13.668;2023-08-06T20:04:35;2.30;;;2.00;;
4023;SDS011;2026;51.002;13.668;2023-08-06T20:09:38;2.60;;;2.40;;
4023;SDS011;2026;51.002;13.668;2023-08-06T20:14:41;3.63;;;2.00;;
4023;SDS011;2026;51.002;13.668;2023-08-06T20:19:45;2.37;;;2.17;;
4023;SDS011;2026;51.002;13.668;2023-08-06T20:24:48;2.30;;;2.10;;
4023;SDS011;2026;51.002;13.668;2023-08-06T20:29:51;2.87;;;2.10;;
4023;SDS011;2026;51.002;13.668;2023-08-06T20:34:55;3.07;;;2.30;;
4023;SDS011;2026;51.002;13.668;2023-08-06T20:39:58;2.93;;;1.90;;
4023;SDS011;2026;51.002;13.668;2023-08-06T20:45:00;2.13;;;1.93;;
4023;SDS011;2026;51.002;13.668;2023-08-06T20:50:06;4.40;;;2.00;;
4023;SDS011;2026;51.002;13.668;2023-08-06T20:55:08;3.50;;;2.67;;
4023;SDS011;2026;51.002;13.668;2023-08-06T21:00:12;2.90;;;2.37;;
4023;SDS011;2026;51.002;13.668;2023-08-06T21:05:16;2.80;;;2.33;;
4023;SDS011;2026;51.002;13.668;2023-08-06T21:10:19;3.20;;;2.30;;
4023;SDS011;2026;51.002;13.668;2023-08-06T21:15:21;2.70;;;2.40;;
4023;SDS011;2026;51.002;13.668;2023-08-06T21:20:26;2.53;;;2.30;;
4023;SDS011;2026;51.002;13.668;2023-08-06T21:25:28;5.20;;;2.80;;
4023;SDS011;2026;51.002;13.668;2023-08-06T21:30:31;3.00;;;2.33;;
4023;SDS011;2026;51.002;13.668;2023-08-06T21:35:35;3.23;;;1.93;;
4023;SDS011;2026;51.002;13.668;2023-08-06T21:40:38;2.80;;;2.17;;
4023;SDS011;2026;51.002;13.668;2023-08-06T21:47:04;2.83;;;1.90;;
4023;SDS011;2026;51.002;13.668;2023-08-06T21:52:07;1.83;;;1.70;;
4023;SDS011;2026;51.002;13.668;2023-08-06T21:57:10;2.93;;;2.00;;
4023;SDS011;2026;51.002;13.668;2023-08-06T22:02:14;2.10;;;1.90;;
4023;SDS011;2026;51.002;13.668;2023-08-06T22:07:16;1.90;;;1.80;;
4023;SDS011;2026;51.002;13.668;2023-08-06T22:12:19;2.27;;;2.07;;
4023;SDS011;2026;51.002;13.668;2023-08-06T22:17:23;2.10;;;1.90;;
4023;SDS011;2026;51.002;13.668;2023-08-06T22:22:26;2.20;;;1.93;;
4023;SDS011;2026;51.002;13.668;2023-08-06T22:27:29;3.50;;;1.80;;
4023;SDS011;2026;51.002;13.668;2023-08-06T22:32:33;3.43;;;1.60;;
4023;SDS011;2026;51.002;13.668;2023-08-06T22:37:36;2.10;;;1.50;;
4023;SDS011;2026;51.002;13.668;2023-08-06T22:42:38;1.80;;;1.70;;
4023;SDS011;2026;51.002;13.668;2023-08-06T22:47:43;1.97;;;1.87;;
4023;SDS011;2026;51.002;13.668;2023-08-06T22:52:46;3.07;;;1.70;;
4023;SDS011;2026;51.002;13.668;2023-08-06T22:57:48;1.70;;;1.60;;
4023;SDS011;2026;51.002;13.668;2023-08-06T23:02:52;5.07;;;1.77;;
4023;SDS011;2026;51.002;13.668;2023-08-06T23:08:09;1.77;;;1.67;;
4023;SDS011;2026;51.002;13.668;2023-08-06T23:13:12;1.97;;;1.77;;
4023;SDS011;2026;51.002;13.668;2023-08-06T23:18:17;2.07;;;1.80;;
4023;SDS011;2026;51.002;13.668;2023-08-06T23:23:19;3.10;;;2.10;;
4023;SDS011;2026;51.002;13.668;2023-08-06T23:28:23;2.67;;;2.43;;
4023;SDS011;2026;51.002;13.668;2023-08-06T23:33:27;2.10;;;2.00;;
4023;SDS011;2026;51.002;13.668;2023-08-06T23:38:30;2.70;;;1.80;;
4023;SDS011;2026;51.002;13.668;2023-08-06T23:43:33;2.50;;;2.30;;
4023;SDS011;2026;51.002;13.668;2023-08-06T23:48:37;2.87;;;2.40;;
4023;SDS011;2026;51.002;13.668;2023-08-06T23:53:39;2.50;;;2.20;;
4023;SDS011;2026;51.002;13.668;2023-08-06T23:58:42;6.50;;;2.27;;
